createdAt,value
2023-04-22T00:00:17.104Z,2.75
2023-04-22T00:02:45.847Z,2.90
2023-04-22T00:05:16.641Z,5.07
2023-04-22T00:07:47.341Z,2.85
2023-04-22T00:10:15.482Z,2.85
2023-04-22T00:12:44.621Z,3.60
2023-04-22T00:15:12.855Z,2.72
2023-04-22T00:17:42.685Z,2.60
2023-04-22T00:20:11.926Z,3.30
2023-04-22T00:22:39.926Z,2.70
2023-04-22T00:25:08.751Z,2.90
2023-04-22T00:27:36.579Z,2.75
2023-04-22T00:30:06.944Z,2.83
2023-04-22T00:32:35.081Z,2.63
2023-04-22T00:35:06.525Z,2.60
2023-04-22T00:37:34.759Z,2.53
2023-04-22T00:40:02.590Z,3.03
2023-04-22T00:42:30.725Z,2.60
2023-04-22T00:44:58.724Z,3.13
2023-04-22T00:47:28.407Z,2.97
2023-04-22T00:49:56.269Z,2.30
2023-04-22T00:52:24.098Z,2.60
2023-04-22T00:54:52.841Z,3.08
2023-04-22T00:57:21.137Z,3.65
2023-04-22T00:59:49.560Z,3.70
2023-04-22T01:02:18.642Z,2.88
2023-04-22T01:04:48.552Z,4.28
2023-04-22T01:07:16.408Z,3.13
2023-04-22T01:09:44.772Z,4.25
2023-04-22T01:12:12.961Z,4.90
2023-04-22T01:14:41.138Z,3.78
2023-04-22T01:17:10.077Z,2.70
2023-04-22T01:19:38.399Z,3.45
2023-04-22T01:22:09.593Z,2.67
2023-04-22T01:24:38.817Z,2.65
2023-04-22T01:27:06.645Z,2.75
2023-04-22T01:29:34.722Z,3.15
2023-04-22T01:32:04.016Z,2.92
2023-04-22T01:34:32.460Z,2.70
2023-04-22T01:37:00.413Z,3.20
2023-04-22T01:39:28.189Z,3.00
2023-04-22T01:41:58.692Z,2.75
2023-04-22T01:44:26.961Z,2.60
2023-04-22T01:46:54.936Z,2.83
2023-04-22T01:49:22.827Z,3.20
2023-04-22T01:51:50.676Z,2.60
2023-04-22T01:54:18.483Z,2.95
2023-04-22T01:56:51.655Z,3.05
2023-04-22T01:59:21.078Z,2.50
2023-04-22T02:01:48.961Z,3.20
2023-04-22T02:04:16.867Z,2.93
2023-04-22T02:06:44.665Z,3.15
2023-04-22T02:09:12.482Z,3.30
2023-04-22T02:11:40.293Z,2.90
2023-04-22T02:14:08.109Z,3.90
2023-04-22T02:16:37.268Z,3.00
2023-04-22T02:19:05.256Z,3.97
2023-04-22T02:21:33.250Z,2.78
2023-04-22T02:24:01.427Z,2.63
2023-04-22T02:26:30.957Z,2.55
2023-04-22T02:28:58.802Z,3.45
2023-04-22T02:31:26.710Z,3.00
2023-04-22T02:33:56.234Z,2.90
2023-04-22T02:36:24.078Z,2.73
2023-04-22T02:38:51.940Z,3.50
2023-04-22T02:41:19.742Z,3.05
2023-04-22T02:43:47.516Z,2.78
2023-04-22T02:46:16.179Z,3.10
2023-04-22T02:48:44.081Z,2.85
2023-04-22T02:51:13.354Z,2.70
2023-04-22T02:53:41.160Z,3.47
2023-04-22T02:56:09.767Z,2.97
2023-04-22T02:58:37.612Z,2.80
2023-04-22T03:01:05.801Z,2.87
2023-04-22T03:03:33.997Z,3.03
2023-04-22T03:06:01.969Z,2.85
2023-04-22T03:08:31.142Z,2.97
2023-04-22T03:10:58.933Z,3.23
2023-04-22T03:13:26.780Z,3.30
2023-04-22T03:15:54.550Z,3.00
2023-04-22T03:18:22.345Z,3.40
2023-04-22T03:20:50.778Z,3.90
2023-04-22T03:23:18.548Z,2.88
2023-04-22T03:25:47.714Z,3.63
2023-04-22T03:28:15.569Z,3.20
2023-04-22T03:30:43.398Z,3.05
2023-04-22T03:33:12.460Z,2.92
2023-04-22T03:35:40.449Z,3.22
2023-04-22T03:38:08.380Z,4.28
2023-04-22T03:40:36.272Z,3.22
2023-04-22T03:43:05.400Z,3.38
2023-04-22T03:45:33.209Z,3.40
2023-04-22T03:48:01.111Z,3.22
2023-04-22T03:50:29.063Z,3.17
2023-04-22T03:52:56.849Z,4.18
2023-04-22T03:55:24.708Z,3.38
2023-04-22T03:57:52.565Z,3.17
2023-04-22T04:00:21.662Z,3.65
2023-04-22T04:02:49.658Z,3.67
2023-04-22T04:05:17.891Z,3.25
2023-04-22T04:07:45.770Z,3.50
2023-04-22T04:10:13.607Z,3.70
2023-04-22T04:12:41.436Z,2.80
2023-04-22T04:15:09.951Z,3.50
2023-04-22T04:17:39.797Z,4.40
2023-04-22T04:20:08.800Z,3.22
2023-04-22T04:22:37.531Z,2.97
2023-04-22T04:25:06.682Z,2.95
2023-04-22T04:27:34.865Z,3.08
2023-04-22T04:30:04.272Z,2.95
2023-04-22T04:32:34.157Z,3.50
2023-04-22T04:35:03.415Z,3.78
2023-04-22T04:37:31.468Z,3.20
2023-04-22T04:39:59.807Z,3.20
2023-04-22T04:42:27.569Z,2.80
2023-04-22T04:44:58.263Z,4.47
2023-04-22T04:47:26.203Z,3.08
2023-04-22T04:49:54.345Z,3.20
2023-04-22T04:52:23.504Z,3.35
2023-04-22T04:54:51.456Z,3.37
2023-04-22T04:57:19.463Z,4.63
2023-04-22T04:59:47.288Z,3.28
2023-04-22T05:02:15.262Z,3.25
2023-04-22T05:04:43.516Z,3.63
2023-04-22T05:07:11.715Z,3.42
2023-04-22T05:09:41.363Z,3.08
2023-04-22T05:12:09.701Z,4.07
2023-04-22T05:14:37.613Z,3.20
2023-04-22T05:17:05.432Z,3.38
2023-04-22T05:19:33.255Z,2.72
2023-04-22T05:22:01.281Z,4.00
2023-04-22T05:24:29.136Z,3.10
2023-04-22T05:26:58.446Z,3.58
2023-04-22T05:29:26.358Z,4.35
2023-04-22T05:31:54.312Z,5.80
2023-04-22T05:34:22.114Z,3.72
2023-04-22T05:36:51.852Z,2.92
2023-04-22T05:39:21.445Z,2.83
2023-04-22T05:41:49.399Z,3.08
2023-04-22T05:44:18.612Z,3.85
2023-04-22T05:46:46.547Z,3.95
2023-04-22T05:49:14.455Z,5.55
2023-04-22T05:51:42.613Z,3.42
2023-04-22T05:54:10.431Z,2.88
2023-04-22T05:56:38.468Z,3.90
2023-04-22T05:59:06.309Z,4.57
2023-04-22T06:01:36.881Z,3.00
2023-04-22T06:04:06.410Z,2.40
2023-04-22T06:06:34.670Z,2.40
2023-04-22T06:09:02.571Z,2.03
2023-04-22T06:11:30.513Z,2.33
2023-04-22T06:13:58.324Z,2.53
2023-04-22T06:16:26.296Z,2.10
2023-04-22T06:18:55.457Z,1.85
2023-04-22T06:21:23.411Z,2.05
2023-04-22T06:23:51.257Z,1.90
2023-04-22T06:26:19.118Z,1.65
2023-04-22T06:28:46.950Z,2.00
2023-04-22T06:31:14.922Z,1.53
2023-04-22T06:33:42.704Z,1.40
2023-04-22T06:36:11.888Z,1.40
2023-04-22T06:38:39.894Z,1.40
2023-04-22T06:41:13.384Z,1.80
2023-04-22T06:43:41.149Z,1.30
2023-04-22T06:46:09.149Z,2.40
2023-04-22T06:48:37.040Z,1.70
2023-04-22T06:51:09.998Z,1.73
2023-04-22T06:53:39.285Z,1.48
2023-04-22T06:56:07.694Z,1.77
2023-04-22T06:58:35.493Z,1.42
2023-04-22T07:01:05.160Z,1.80
2023-04-22T07:03:33.089Z,1.57
2023-04-22T07:06:01.157Z,1.60
2023-04-22T07:08:29.019Z,1.30
2023-04-22T07:10:58.597Z,1.60
2023-04-22T07:13:27.187Z,1.40
2023-04-22T07:15:55.045Z,2.42
2023-04-22T07:18:22.921Z,1.45
2023-04-22T07:20:51.094Z,1.50
2023-04-22T07:23:19.499Z,1.88
2023-04-22T07:25:47.338Z,2.28
2023-04-22T07:28:16.540Z,1.38
2023-04-22T07:30:44.329Z,1.30
2023-04-22T07:33:12.111Z,1.40
2023-04-22T07:35:40.006Z,1.98
2023-04-22T07:38:09.411Z,1.58
2023-04-22T07:40:38.368Z,1.90
2023-04-22T07:43:06.529Z,1.48
2023-04-22T07:45:35.905Z,2.10
2023-04-22T07:48:05.353Z,1.30
2023-04-22T07:50:33.276Z,1.67
2023-04-22T07:53:01.126Z,2.08
2023-04-22T07:55:28.962Z,1.85
2023-04-22T07:57:57.106Z,2.00
2023-04-22T08:00:24.963Z,1.93
2023-04-22T08:02:54.229Z,2.20
2023-04-22T08:05:22.147Z,1.48
2023-04-22T08:07:49.991Z,2.60
2023-04-22T08:10:17.875Z,1.40
2023-04-22T08:12:46.075Z,1.85
2023-04-22T08:15:14.017Z,1.15
2023-04-22T08:17:41.826Z,1.20
2023-04-22T08:20:12.663Z,1.38
2023-04-22T08:22:40.449Z,1.23
2023-04-22T08:25:09.587Z,1.40
2023-04-22T08:27:38.714Z,1.25
2023-04-22T08:30:07.890Z,0.93
2023-04-22T08:32:35.848Z,1.50
2023-04-22T08:35:05.431Z,2.85
2023-04-22T08:37:35.528Z,1.45
2023-04-22T08:40:04.782Z,1.30
2023-04-22T08:42:32.735Z,1.60
2023-04-22T08:45:01.059Z,1.40
2023-04-22T08:47:29.793Z,1.40
2023-04-22T08:49:58.652Z,1.50
2023-04-22T08:52:26.452Z,1.50
2023-04-22T08:54:55.884Z,1.60
2023-04-22T08:57:24.637Z,1.30
2023-04-22T08:59:53.047Z,1.60
2023-04-22T09:02:22.886Z,2.97
2023-04-22T09:04:52.228Z,1.55
2023-04-22T09:07:24.729Z,1.85
2023-04-22T09:09:53.447Z,2.60
2023-04-22T09:12:22.646Z,2.07
2023-04-22T09:14:50.454Z,2.55
2023-04-22T09:17:18.977Z,1.20
2023-04-22T09:19:47.121Z,1.50
2023-04-22T09:22:16.265Z,3.90
2023-04-22T09:24:49.933Z,1.90
2023-04-22T09:27:18.176Z,1.63
2023-04-22T09:29:51.337Z,1.27
2023-04-22T09:32:19.910Z,1.67
2023-04-22T09:34:51.771Z,1.33
2023-04-22T09:37:26.429Z,1.52
2023-04-22T09:39:58.679Z,1.30
2023-04-22T09:42:26.607Z,1.90
2023-04-22T09:44:56.112Z,3.20
2023-04-22T09:47:24.505Z,2.38
2023-04-22T09:49:52.330Z,1.40
2023-04-22T09:52:26.893Z,3.67
2023-04-22T09:54:55.391Z,2.03
2023-04-22T09:57:23.796Z,3.57
2023-04-22T09:59:52.910Z,2.30
2023-04-22T10:02:30.207Z,1.48
2023-04-22T10:04:58.615Z,1.35
2023-04-22T10:07:31.477Z,2.28
2023-04-22T10:09:59.945Z,1.20
2023-04-22T10:12:35.304Z,2.17
2023-04-22T10:15:03.903Z,2.40
2023-04-22T10:17:35.065Z,1.17
2023-04-22T10:20:06.521Z,3.72
2023-04-22T10:22:36.091Z,3.95
2023-04-22T10:25:04.017Z,3.08
2023-04-22T10:27:32.785Z,2.53
2023-04-22T10:30:00.619Z,1.63
2023-04-22T10:32:29.141Z,1.20
2023-04-22T10:35:12.324Z,1.60
2023-04-22T10:37:43.162Z,1.25
2023-04-22T10:40:16.056Z,2.42
2023-04-22T10:42:48.215Z,2.15
2023-04-22T10:45:16.719Z,2.50
2023-04-22T10:47:45.418Z,1.52
2023-04-22T10:50:17.986Z,2.35
2023-04-22T10:52:49.538Z,1.40
2023-04-22T10:55:17.935Z,1.80
2023-04-22T10:57:47.336Z,1.58
2023-04-22T11:00:21.122Z,1.70
2023-04-22T11:02:54.686Z,1.25
2023-04-22T11:05:27.661Z,1.40
2023-04-22T11:07:58.487Z,1.27
2023-04-22T11:10:43.043Z,2.10
2023-04-22T11:13:14.950Z,1.20
2023-04-22T11:15:46.924Z,1.70
2023-04-22T11:18:20.756Z,2.92
2023-04-22T11:20:51.530Z,3.78
2023-04-22T11:23:22.753Z,1.35
2023-04-22T11:25:55.803Z,2.90
2023-04-22T11:28:24.961Z,1.30
2023-04-22T11:30:53.998Z,2.77
2023-04-22T11:33:22.019Z,1.30
2023-04-22T11:35:55.332Z,1.33
2023-04-22T11:38:23.324Z,1.20
2023-04-22T11:40:51.145Z,1.30
2023-04-22T11:43:19.469Z,1.40
2023-04-22T11:45:47.588Z,1.27
2023-04-22T11:48:15.516Z,1.58
2023-04-22T11:50:44.761Z,1.00
2023-04-22T11:53:18.375Z,2.08
2023-04-22T11:55:47.903Z,1.52
2023-04-22T11:58:18.156Z,1.30
2023-04-22T12:00:47.593Z,1.20
2023-04-22T12:03:18.470Z,2.00
2023-04-22T12:05:48.013Z,1.40
2023-04-22T12:08:19.628Z,1.25
2023-04-22T12:10:50.774Z,1.40
2023-04-22T12:13:22.744Z,1.10
2023-04-22T12:15:56.025Z,1.30
2023-04-22T12:18:30.877Z,3.00
2023-04-22T12:21:02.264Z,1.10
2023-04-22T12:23:32.251Z,1.42
2023-04-22T12:26:00.015Z,1.52
2023-04-22T12:28:27.911Z,2.30
2023-04-22T12:30:55.788Z,1.92
2023-04-22T12:33:23.629Z,1.73
2023-04-22T12:35:52.549Z,1.20
2023-04-22T12:38:20.546Z,1.60
2023-04-22T12:40:50.929Z,2.00
2023-04-22T12:43:19.263Z,1.20
2023-04-22T12:45:47.170Z,1.20
2023-04-22T12:48:14.943Z,1.40
2023-04-22T12:50:43.011Z,1.38
2023-04-22T12:53:11.256Z,1.77
2023-04-22T12:55:39.156Z,1.45
2023-04-22T12:58:08.450Z,2.72
2023-04-22T13:00:36.237Z,3.00
2023-04-22T13:03:10.737Z,1.50
2023-04-22T13:05:39.757Z,1.20
2023-04-22T13:08:08.351Z,1.52
2023-04-22T13:10:36.558Z,1.60
2023-04-22T13:13:17.876Z,1.85
2023-04-22T13:15:52.958Z,1.48
2023-04-22T13:18:20.934Z,1.30
2023-04-22T13:20:48.898Z,1.80
2023-04-22T13:23:17.111Z,2.45
2023-04-22T13:25:45.158Z,1.60
2023-04-22T13:28:13.023Z,4.27
2023-04-22T13:30:40.992Z,2.78
2023-04-22T13:33:10.259Z,1.80
2023-04-22T13:35:38.135Z,1.75
2023-04-22T13:38:07.311Z,1.52
2023-04-22T13:40:35.723Z,3.10
2023-04-22T13:43:03.608Z,1.30
2023-04-22T13:45:31.465Z,1.77
2023-04-22T13:47:59.367Z,1.52
2023-04-22T13:50:28.860Z,2.60
2023-04-22T13:52:56.742Z,1.42
2023-04-22T13:55:24.584Z,2.85
2023-04-22T13:57:52.773Z,1.63
2023-04-22T14:00:21.165Z,1.92
2023-04-22T14:02:49.390Z,2.45
2023-04-22T14:05:17.765Z,1.60
2023-04-22T14:07:46.889Z,1.67
2023-04-22T14:10:16.047Z,1.90
2023-04-22T14:12:44.252Z,1.25
2023-04-22T14:15:12.172Z,1.48
2023-04-22T14:17:40.244Z,3.37
2023-04-22T14:20:10.788Z,2.40
2023-04-22T14:22:38.916Z,4.28
2023-04-22T14:25:09.235Z,1.23
2023-04-22T14:27:37.042Z,1.40
2023-04-22T14:30:06.202Z,1.52
2023-04-22T14:32:34.141Z,1.48
2023-04-22T14:35:02.023Z,1.15
2023-04-22T14:37:31.599Z,2.57
2023-04-22T14:39:59.481Z,1.75
2023-04-22T14:42:29.220Z,1.63
2023-04-22T14:44:57.644Z,1.83
2023-04-22T14:47:25.602Z,1.65
2023-04-22T14:49:53.437Z,1.92
2023-04-22T14:52:21.308Z,2.47
2023-04-22T14:54:51.268Z,1.40
2023-04-22T14:57:19.845Z,2.28
2023-04-22T14:59:49.015Z,1.63
2023-04-22T15:02:17.206Z,1.58
2023-04-22T15:04:45.130Z,2.22
2023-04-22T15:07:12.934Z,3.27
2023-04-22T15:09:40.923Z,2.88
2023-04-22T15:12:09.086Z,1.90
2023-04-22T15:14:37.326Z,2.53
2023-04-22T15:17:06.916Z,2.40
2023-04-22T15:19:34.718Z,1.90
2023-04-22T15:22:03.024Z,2.00
2023-04-22T15:24:30.821Z,2.10
2023-04-22T15:26:59.431Z,2.00
2023-04-22T15:29:28.320Z,2.90
2023-04-22T15:31:56.639Z,4.07
2023-04-22T15:34:26.050Z,4.85
2023-04-22T15:36:54.297Z,1.60
2023-04-22T15:39:22.224Z,2.03
2023-04-22T15:41:50.151Z,1.70
2023-04-22T15:44:18.072Z,4.87
2023-04-22T15:46:46.890Z,2.25
2023-04-22T15:49:15.640Z,3.88
2023-04-22T15:51:44.950Z,1.73
2023-04-22T15:54:13.444Z,1.65
2023-04-22T15:56:41.638Z,2.40
2023-04-22T15:59:09.672Z,4.38
2023-04-22T16:01:40.456Z,2.00
2023-04-22T16:04:08.722Z,2.45
2023-04-22T16:06:38.059Z,1.60
2023-04-22T16:09:07.425Z,3.10
2023-04-22T16:11:35.558Z,1.52
2023-04-22T16:14:03.448Z,3.20
2023-04-22T16:16:32.319Z,2.95
2023-04-22T16:19:00.322Z,3.40
2023-04-22T16:21:28.602Z,11.20
2023-04-22T16:23:56.521Z,6.50
2023-04-22T16:26:25.783Z,3.03
2023-04-22T16:28:54.802Z,2.33
2023-04-22T16:31:23.420Z,2.70
2023-04-22T16:33:51.573Z,3.78
2023-04-22T16:36:19.423Z,2.72
2023-04-22T16:38:47.218Z,2.10
2023-04-22T16:41:15.288Z,4.57
2023-04-22T16:43:44.637Z,2.17
2023-04-22T16:46:12.473Z,2.17
2023-04-22T16:48:40.276Z,1.80
2023-04-22T16:51:08.188Z,2.00
2023-04-22T16:53:36.725Z,2.38
2023-04-22T16:56:04.755Z,2.20
2023-04-22T16:58:32.671Z,2.15
2023-04-22T17:01:01.794Z,2.42
2023-04-22T17:03:29.692Z,2.25
2023-04-22T17:05:57.615Z,2.90
2023-04-22T17:08:25.394Z,2.80
2023-04-22T17:10:53.200Z,2.88
2023-04-22T17:13:21.044Z,4.60
2023-04-22T17:15:48.943Z,3.60
2023-04-22T17:18:18.128Z,2.08
2023-04-22T17:20:45.970Z,2.13
2023-04-22T17:23:13.886Z,5.07
2023-04-22T17:25:42.334Z,4.00
2023-04-22T17:28:11.463Z,4.50
2023-04-22T17:30:39.446Z,3.70
2023-04-22T17:33:07.250Z,4.97
2023-04-22T17:35:36.515Z,2.90
2023-04-22T17:38:04.393Z,2.53
2023-04-22T17:40:32.442Z,2.50
2023-04-22T17:43:00.212Z,3.13
2023-04-22T17:45:28.041Z,3.00
2023-04-22T17:47:55.915Z,2.15
2023-04-22T17:50:23.809Z,2.25
2023-04-22T17:52:53.027Z,3.58
2023-04-22T17:55:21.090Z,2.40
2023-04-22T17:57:48.929Z,2.37
2023-04-22T18:00:17.980Z,2.97
2023-04-22T18:02:46.060Z,3.33
2023-04-22T18:05:14.059Z,3.55
2023-04-22T18:07:41.957Z,3.20
2023-04-22T18:10:12.590Z,3.72
2023-04-22T18:12:41.506Z,3.47
2023-04-22T18:15:09.635Z,4.10
2023-04-22T18:17:37.449Z,4.07
2023-04-22T18:20:20.609Z,4.95
2023-04-22T18:22:49.659Z,4.85
2023-04-22T18:25:19.648Z,3.60
2023-04-22T18:27:47.591Z,3.70
2023-04-22T18:30:15.634Z,3.47
2023-04-22T18:32:43.530Z,4.43
2023-04-22T18:35:11.391Z,3.55
2023-04-22T18:37:39.142Z,3.35
2023-04-22T18:40:08.699Z,3.90
2023-04-22T18:42:38.371Z,4.32
2023-04-22T18:45:08.116Z,3.30
2023-04-22T18:47:36.155Z,3.65
2023-04-22T18:50:04.385Z,3.30
2023-04-22T18:52:32.178Z,4.53
2023-04-22T18:55:00.139Z,3.38
2023-04-22T18:57:27.997Z,2.90
2023-04-22T18:59:57.298Z,2.90
2023-04-22T19:02:25.460Z,3.15
2023-04-22T19:04:54.548Z,3.72
2023-04-22T19:07:22.454Z,3.00
2023-04-22T19:09:50.212Z,2.75
2023-04-22T19:12:19.453Z,3.78
2023-04-22T19:14:48.290Z,3.78
2023-04-22T19:17:18.214Z,3.92
2023-04-22T19:19:46.460Z,5.63
2023-04-22T19:22:16.040Z,3.85
2023-04-22T19:24:43.828Z,5.78
2023-04-22T19:27:12.990Z,5.88
2023-04-22T19:29:41.512Z,4.83
2023-04-22T19:32:10.850Z,4.13
2023-04-22T19:34:40.335Z,3.95
2023-04-22T19:37:08.162Z,3.70
2023-04-22T19:39:36.255Z,3.80
2023-04-22T19:42:04.193Z,3.47
2023-04-22T19:44:32.294Z,3.50
2023-04-22T19:47:00.737Z,4.18
2023-04-22T19:49:31.005Z,4.43
2023-04-22T19:52:02.607Z,5.38
2023-04-22T19:54:30.871Z,4.00
2023-04-22T19:56:59.010Z,4.90
2023-04-22T19:59:30.952Z,4.43
2023-04-22T20:01:59.342Z,4.97
2023-04-22T20:04:27.997Z,4.82
2023-04-22T20:06:57.060Z,5.33
2023-04-22T20:09:27.479Z,4.53
2023-04-22T20:11:55.412Z,4.07
2023-04-22T20:14:23.722Z,6.65
2023-04-22T20:16:51.947Z,4.93
2023-04-22T20:19:20.053Z,4.32
2023-04-22T20:21:49.566Z,4.05
2023-04-22T20:24:19.427Z,4.95
2023-04-22T20:26:49.542Z,4.13
2023-04-22T20:29:18.681Z,3.35
2023-04-22T20:31:46.869Z,4.28
2023-04-22T20:34:14.905Z,4.50
2023-04-22T20:36:43.502Z,3.55
2023-04-22T20:39:14.019Z,3.55
2023-04-22T20:41:42.314Z,6.70
2023-04-22T20:44:11.417Z,4.38
2023-04-22T20:46:39.334Z,3.83
2023-04-22T20:49:08.049Z,3.95
2023-04-22T20:51:35.858Z,4.57
2023-04-22T20:54:06.180Z,4.32
2023-04-22T20:56:38.003Z,3.22
2023-04-22T20:59:05.931Z,4.97
2023-04-22T21:01:35.600Z,4.13
2023-04-22T21:04:04.228Z,3.70
2023-04-22T21:06:33.883Z,3.80
2023-04-22T21:09:02.973Z,4.43
2023-04-22T21:11:31.383Z,3.08
2023-04-22T21:14:00.087Z,3.80
2023-04-22T21:16:30.604Z,4.53
2023-04-22T21:19:01.580Z,3.63
2023-04-22T21:21:33.578Z,4.38
2023-04-22T21:24:02.588Z,3.92
2023-04-22T21:26:31.090Z,3.63
2023-04-22T21:28:59.737Z,4.88
2023-04-22T21:31:28.604Z,4.03
2023-04-22T21:33:56.395Z,4.53
2023-04-22T21:36:27.042Z,3.70
2023-04-22T21:38:56.794Z,3.50
2023-04-22T21:41:24.976Z,3.95
2023-04-22T21:43:53.243Z,3.45
2023-04-22T21:46:22.054Z,2.70
2023-04-22T21:48:49.900Z,4.47
2023-04-22T21:51:17.697Z,3.53
2023-04-22T21:53:46.941Z,2.67
2023-04-22T21:56:14.797Z,3.08
2023-04-22T21:58:42.831Z,3.05
2023-04-22T22:01:10.801Z,2.90
2023-04-22T22:03:38.726Z,3.38
2023-04-22T22:06:06.991Z,2.87
2023-04-22T22:08:34.843Z,3.38
2023-04-22T22:11:06.358Z,3.00
2023-04-22T22:13:34.859Z,3.83
2023-04-22T22:16:02.725Z,3.13
2023-04-22T22:18:30.769Z,3.00
2023-04-22T22:20:59.584Z,2.70
2023-04-22T22:23:27.361Z,3.92
2023-04-22T22:25:55.527Z,3.13
2023-04-22T22:28:24.992Z,2.88
2023-04-22T22:30:52.759Z,4.57
2023-04-22T22:33:20.517Z,5.20
2023-04-22T22:35:48.610Z,3.80
2023-04-22T22:38:16.392Z,4.03
2023-04-22T22:40:44.161Z,4.00
2023-04-22T22:43:13.358Z,5.45
2023-04-22T22:45:42.565Z,4.70
2023-04-22T22:48:10.576Z,3.30
2023-04-22T22:50:38.851Z,4.18
2023-04-22T22:53:06.583Z,3.38
2023-04-22T22:55:34.670Z,3.72
2023-04-22T22:58:02.536Z,3.80
2023-04-22T23:00:30.367Z,4.03
2023-04-22T23:02:59.702Z,5.75
2023-04-22T23:05:28.377Z,3.40
2023-04-22T23:07:56.120Z,4.85
2023-04-22T23:10:23.950Z,3.97
2023-04-22T23:12:51.748Z,4.38
2023-04-22T23:15:19.548Z,3.42
2023-04-22T23:17:47.493Z,3.50
2023-04-22T23:20:17.343Z,3.20
2023-04-22T23:22:48.759Z,3.92
2023-04-22T23:25:17.730Z,4.85
2023-04-22T23:27:45.962Z,3.78
2023-04-22T23:30:14.508Z,5.20
2023-04-22T23:32:44.977Z,3.33
2023-04-22T23:35:14.371Z,3.70
2023-04-22T23:37:45.688Z,4.80
2023-04-22T23:40:14.187Z,3.50
2023-04-22T23:42:41.971Z,3.80
2023-04-22T23:45:11.182Z,3.85
2023-04-22T23:47:38.965Z,3.85
2023-04-22T23:50:07.819Z,4.15
2023-04-22T23:52:40.565Z,5.38
2023-04-22T23:55:11.450Z,3.50
2023-04-22T23:57:39.635Z,3.38
